Time;durP1;ratioP1;P1;durP2;ratioP2;P2;SDS_P1;SDS_P2;PMS_P1;PMS_P2;Temp;Humidity;BMP_temperature;BMP_pressure;BME280_temperature;BME280_humidity;BME280_pressure;Samples;Min_cycle;Max_cycle;Signal;HPM_P1;HPM_P2
2021/12/21 00:00:56;;;;;;;15.05;8.65;;;0.90;99.90;;;;;;5033752;28;20111;-78
2021/12/21 00:03:22;;;;;;;16.02;9.68;;;0.80;99.90;;;;;;5034032;28;20121;-78
2021/12/21 00:05:48;;;;;;;14.57;8.50;;;0.80;99.90;;;;;;5015381;28;20095;-77
2021/12/21 00:08:16;;;;;;;15.50;9.02;;;0.90;99.90;;;;;;5016153;28;20049;-78
2021/12/21 00:10:45;;;;;;;17.05;9.13;;;0.80;99.90;;;;;;5034009;28;20115;-78
2021/12/21 00:16:17;;;;;;;17.83;8.77;;;0.80;99.90;;;;;;5033563;28;20461;-77
2021/12/21 00:19:07;;;;;;;12.25;7.40;;;0.80;99.90;;;;;;5032935;28;20111;-79
2021/12/21 00:21:39;;;;;;;;;;;0.80;99.90;;;;;;5034052;28;20045;-78
2021/12/21 00:24:18;;;;;;;14.48;7.57;;;0.70;99.90;;;;;;5033380;28;20349;-78
2021/12/21 00:26:43;;;;;;;14.57;8.32;;;0.70;99.90;;;;;;5033556;28;20041;-78
2021/12/21 00:29:09;;;;;;;15.17;7.77;;;0.70;99.90;;;;;;5032911;28;20056;-78
2021/12/21 00:31:37;;;;;;;14.87;8.70;;;0.60;99.90;;;;;;5016127;28;20045;-79
2021/12/21 00:34:06;;;;;;;14.52;8.50;;;0.60;99.90;;;;;;5033063;28;20111;-79
2021/12/21 00:36:32;;;;;;;14.40;8.80;;;0.70;99.90;;;;;;5033365;28;20057;-79
2021/12/21 00:39:01;;;;;;;16.00;8.55;;;0.70;99.90;;;;;;5032969;28;20041;-79
2021/12/21 00:41:26;;;;;;;13.65;8.15;;;0.70;99.90;;;;;;5033420;28;20125;-79
2021/12/21 00:43:52;;;;;;;13.97;9.10;;;0.50;99.90;;;;;;5015443;28;20085;-76
2021/12/21 00:46:19;;;;;;;12.27;6.97;;;0.60;99.90;;;;;;5033215;28;20125;-79
2021/12/21 00:48:50;;;;;;;12.77;6.45;;;0.60;99.90;;;;;;5015589;28;20053;-79
2021/12/21 00:51:19;;;;;;;9.60;5.57;;;0.50;99.90;;;;;;5032589;28;20556;-79
2021/12/21 00:53:45;;;;;;;9.50;5.45;;;0.40;99.90;;;;;;5033234;28;20054;-79
2021/12/21 00:56:11;;;;;;;10.70;4.80;;;0.40;99.90;;;;;;5032739;28;20045;-79
2021/12/21 00:58:38;;;;;;;9.65;4.72;;;0.40;99.90;;;;;;5015448;28;20664;-79
2021/12/21 01:01:06;;;;;;;11.88;5.35;;;0.50;99.90;;;;;;5032688;28;20448;-79
2021/12/21 01:03:38;;;;;;;10.00;4.70;;;0.50;99.90;;;;;;5033050;28;20049;-79
2021/12/21 01:06:21;;;;;;;13.02;5.65;;;0.50;99.90;;;;;;5032736;28;20092;-79
2021/12/21 01:09:08;;;;;;;10.13;5.13;;;0.50;99.90;;;;;;5032945;28;20045;-80
2021/12/21 01:11:40;;;;;;;10.82;5.30;;;0.50;99.90;;;;;;5032983;28;20095;-80
2021/12/21 01:17:07;;;;;;;10.63;5.40;;;0.50;99.90;;;;;;5032175;28;20501;-80
2021/12/21 01:19:38;;;;;;;10.55;4.82;;;0.50;99.90;;;;;;5033172;28;20120;-79
2021/12/21 01:22:15;;;;;;;10.25;4.80;;;0.50;99.90;;;;;;5032630;28;20045;-79
2021/12/21 01:25:19;;;;;;;10.70;5.00;;;0.50;99.90;;;;;;5017045;28;20076;-79
2021/12/21 01:28:10;;;;;;;10.00;4.25;;;0.50;99.90;;;;;;5032644;28;20052;-79
2021/12/21 01:30:48;;;;;;;8.70;4.53;;;0.50;99.90;;;;;;5032265;28;20057;-79
2021/12/21 01:33:39;;;;;;;8.20;4.35;;;0.40;99.90;;;;;;5032570;28;20128;-79
2021/12/21 01:36:15;;;;;;;9.80;4.47;;;0.40;99.90;;;;;;5032014;28;20502;-79
2021/12/21 01:38:52;;;;;;;9.75;4.03;;;0.40;99.90;;;;;;5015065;28;20142;-79
2021/12/21 01:44:12;;;;;;;11.30;4.70;;;0.40;99.90;;;;;;5032787;28;20054;-79
2021/12/21 01:49:39;;;;;;;7.82;3.95;;;0.40;99.90;;;;;;5032068;28;20586;-79
2021/12/21 01:52:06;;;;;;;11.43;4.30;;;0.30;99.90;;;;;;5032392;28;20053;-79
2021/12/21 01:54:32;;;;;;;8.48;4.30;;;0.40;99.90;;;;;;5032331;28;20496;-79
2021/12/21 01:56:58;;;;;;;8.57;4.17;;;0.30;99.90;;;;;;5032203;28;20041;-79
2021/12/21 01:59:24;;;;;;;9.17;4.17;;;0.30;99.90;;;;;;5032187;28;20128;-79
2021/12/21 02:01:49;;;;;;;9.07;3.83;;;0.30;99.90;;;;;;5032503;28;20129;-79
2021/12/21 02:04:17;;;;;;;9.27;3.97;;;0.30;99.90;;;;;;5032088;28;20504;-79
2021/12/21 02:06:43;;;;;;;8.65;3.97;;;0.30;99.90;;;;;;5032458;28;20452;-79
2021/12/21 02:09:09;;;;;;;13.55;4.03;;;0.30;99.90;;;;;;5014464;28;20370;-79
2021/12/21 02:11:35;;;;;;;6.53;3.73;;;0.30;99.90;;;;;;5032415;28;20124;-79
2021/12/21 02:14:01;;;;;;;10.40;4.00;;;0.30;99.90;;;;;;5031976;28;20058;-79
2021/12/21 02:16:46;;;;;;;8.47;4.33;;;0.30;99.90;;;;;;5031710;28;20062;-79
2021/12/21 02:19:52;;;;;;;10.55;4.43;;;0.30;99.90;;;;;;5014355;28;20054;-79
2021/12/21 02:22:12;;;;;;;8.35;3.80;;;0.30;99.90;;;;;;5028711;28;20056;-78
2021/12/21 02:24:47;;;;;;;7.82;3.22;;;0.30;99.90;;;;;;5032384;28;20120;-79
2021/12/21 02:27:28;;;;;;;7.63;3.55;;;0.30;99.90;;;;;;5032049;28;20042;-79
2021/12/21 02:29:54;;;;;;;8.35;3.72;;;0.20;99.90;;;;;;5014027;28;20475;-79
2021/12/21 02:32:23;;;;;;;8.60;3.85;;;0.10;99.90;;;;;;5015600;28;20111;-79
2021/12/21 02:34:50;;;;;;;10.57;3.70;;;0.20;99.90;;;;;;5015905;28;20116;-80
2021/12/21 02:37:15;;;;;;;6.80;3.50;;;0.30;99.90;;;;;;5014298;28;20129;-80
2021/12/21 02:39:41;;;;;;;7.53;3.47;;;0.20;99.90;;;;;;5015858;28;20128;-80
2021/12/21 02:42:07;;;;;;;10.57;3.70;;;0.20;99.90;;;;;;5015425;28;20048;-79
2021/12/21 02:44:34;;;;;;;6.75;3.55;;;0.20;99.90;;;;;;5015779;28;20050;-79
2021/12/21 02:47:00;;;;;;;15.05;4.03;;;0.20;99.90;;;;;;5015796;28;20385;-80
2021/12/21 02:49:26;;;;;;;7.07;3.63;;;0.10;99.90;;;;;;5014473;28;20057;-79
2021/12/21 02:51:52;;;;;;;8.38;3.25;;;0.10;99.90;;;;;;5015597;28;20049;-80
2021/12/21 02:54:19;;;;;;;7.40;3.63;;;;;;;;;;5015185;28;20045;-79
2021/12/21 02:56:45;;;;;;;8.20;3.60;;;;;;;;;;4997935;28;20534;-79
2021/12/21 02:59:11;;;;;;;9.48;3.60;;;;;;;;;;5015208;28;20046;-79
2021/12/21 03:01:38;;;;;;;7.30;3.42;;;;;;;;;;5015418;28;20046;-79
2021/12/21 03:04:05;;;;;;;6.82;3.10;;;;;;;;;;5014326;28;20441;-79
2021/12/21 03:11:56;;;;;;;8.63;3.33;;;;;;;;;;5015321;28;20147;-79
2021/12/21 03:14:23;;;;;;;7.95;3.55;;;;;;;;;;5015009;28;20054;-79
2021/12/21 03:16:49;;;;;;;9.20;3.40;;;;;;;;;;5014165;28;20085;-79
2021/12/21 03:19:15;;;;;;;9.25;3.67;;;;;;;;;;5014686;28;20042;-79
2021/12/21 03:21:41;;;;;;;7.53;3.15;;;;;;;;;;5015300;28;20107;-79
2021/12/21 03:24:08;;;;;;;7.90;3.17;;;;;;;;;;5014665;28;20046;-79
2021/12/21 03:26:34;;;;;;;6.97;3.22;;;;;;;;;;5014647;28;20057;-79
2021/12/21 03:29:00;;;;;;;9.20;2.88;;;;;;;;;;5014776;28;20493;-79
2021/12/21 03:31:27;;;;;;;9.18;4.20;;;;;;;;;;5033101;28;20062;-79
2021/12/21 03:33:53;;;;;;;7.28;3.15;;;;;;;;;;5016919;28;20045;-79
2021/12/21 03:36:19;;;;;;;7.13;3.03;;;0.20;99.90;;;;;;5034303;28;20041;-78
2021/12/21 03:38:52;;;;;;;9.45;3.63;;;0.20;99.90;;;;;;5034478;28;20045;-79
2021/12/21 03:41:19;;;;;;;7.75;3.15;;;0.20;99.90;;;;;;5016393;28;20417;-78
2021/12/21 03:43:46;;;;;;;8.07;3.38;;;0.00;99.90;;;;;;5016628;28;20049;-79
2021/12/21 03:46:14;;;;;;;7.80;3.45;;;0.70;99.90;;;;;;5016517;28;20080;-79
2021/12/21 03:48:46;;;;;;;7.13;3.67;;;0.00;99.90;;;;;;5034249;28;20042;-80
2021/12/21 03:51:13;;;;;;;7.97;2.97;;;;;;;;;;5034277;28;20046;-79
2021/12/21 03:53:40;;;;;;;9.48;3.45;;;-0.10;99.90;;;;;;5034401;28;20136;-79
2021/12/21 03:58:50;;;;;;;8.82;3.35;;;-0.20;99.90;;;;;;5016666;28;20054;-79
2021/12/21 04:01:16;;;;;;;9.75;3.88;;;-0.30;99.90;;;;;;5016195;28;20136;-77
2021/12/21 04:03:41;;;;;;;8.27;3.60;;;-0.30;99.90;;;;;;5033988;28;20129;-78
2021/12/21 04:06:08;;;;;;;10.80;3.97;;;-0.30;99.90;;;;;;5034080;28;20041;-78
2021/12/21 04:08:34;;;;;;;8.18;3.35;;;-0.30;99.90;;;;;;5033563;28;20498;-78
2021/12/21 04:11:01;;;;;;;11.23;4.30;;;-0.40;99.90;;;;;;5016589;28;20060;-78
2021/12/21 04:13:27;;;;;;;10.60;5.05;;;-0.40;99.90;;;;;;5015528;28;20458;-78
2021/12/21 04:15:53;;;;;;;7.85;3.35;;;-0.40;99.90;;;;;;5033797;28;20046;-78
2021/12/21 04:18:23;;;;;;;10.25;3.75;;;-0.40;99.90;;;;;;5033323;28;20076;-78
2021/12/21 04:20:50;;;;;;;8.52;3.17;;;-0.40;99.90;;;;;;5034005;28;20444;-78
2021/12/21 04:23:16;;;;;;;7.55;3.50;;;-0.40;99.90;;;;;;5033630;28;20149;-78
2021/12/21 04:25:42;;;;;;;8.85;3.65;;;-0.40;99.90;;;;;;5033185;28;20482;-78
2021/12/21 04:28:08;;;;;;;9.60;3.60;;;-0.40;99.90;;;;;;5016205;28;20043;-78
2021/12/21 04:30:34;;;;;;;7.40;3.08;;;-0.30;99.90;;;;;;5015150;28;20133;-78
2021/12/21 04:33:00;;;;;;;7.90;3.37;;;-0.30;99.90;;;;;;5033468;28;20128;-79
2021/12/21 04:35:25;;;;;;;7.43;3.70;;;-0.40;99.90;;;;;;5033131;28;20049;-78
2021/12/21 04:37:57;;;;;;;8.93;3.63;;;-0.40;99.90;;;;;;5015791;28;20042;-78
2021/12/21 04:40:37;;;;;;;7.28;3.40;;;-0.40;99.90;;;;;;5033112;28;20053;-78
2021/12/21 04:43:03;;;;;;;7.43;3.35;;;-0.40;99.90;;;;;;5033452;28;20057;-78
2021/12/21 04:45:29;;;;;;;7.60;3.05;;;-0.40;99.90;;;;;;5015499;28;20049;-78
2021/12/21 04:47:55;;;;;;;9.00;3.53;;;-0.50;99.90;;;;;;5033281;28;20124;-78
2021/12/21 04:50:21;;;;;;;8.53;3.17;;;-0.50;99.90;;;;;;5032985;28;20475;-76
2021/12/21 04:52:47;;;;;;;8.23;3.23;;;-0.60;99.90;;;;;;5032705;28;20551;-78
2021/12/21 04:55:12;;;;;;;15.33;4.20;;;-0.50;99.90;;;;;;5033075;28;20068;-78
2021/12/21 04:57:38;;;;;;;8.43;3.90;;;-0.50;99.90;;;;;;5032670;28;20041;-78
2021/12/21 05:00:05;;;;;;;9.07;3.40;;;-0.50;99.90;;;;;;5015653;28;20099;-79
2021/12/21 05:02:31;;;;;;;7.45;3.10;;;-0.50;99.90;;;;;;5015173;28;20477;-79
2021/12/21 05:04:57;;;;;;;9.38;3.50;;;-0.50;99.90;;;;;;5033317;28;20145;-79
2021/12/21 05:07:26;;;;;;;7.47;3.30;;;-0.50;99.90;;;;;;5032645;28;20496;-78
2021/12/21 05:09:56;;;;;;;8.35;3.55;;;-0.50;99.90;;;;;;5032951;28;20049;-79
2021/12/21 05:12:23;;;;;;;9.43;3.50;;;-0.40;99.90;;;;;;4999934;28;20053;-77
2021/12/21 05:14:49;;;;;;;8.40;3.58;;;-0.40;99.90;;;;;;5033116;28;20046;-79
2021/12/21 05:17:15;;;;;;;5.82;3.00;;;-0.40;99.90;;;;;;5032715;28;20049;-80
2021/12/21 05:19:41;;;;;;;7.63;3.50;;;-0.40;99.90;;;;;;5032576;28;20090;-79
2021/12/21 05:22:06;;;;;;;8.63;3.40;;;-0.50;99.90;;;;;;5032818;28;20099;-79
2021/12/21 05:24:32;;;;;;;8.27;3.30;;;-0.60;99.90;;;;;;5014706;28;20370;-79
2021/12/21 05:26:58;;;;;;;10.03;3.70;;;-0.60;99.90;;;;;;5015711;28;20050;-79
2021/12/21 05:29:24;;;;;;;8.80;3.23;;;-0.60;99.90;;;;;;5032498;28;20053;-79
2021/12/21 05:31:50;;;;;;;9.27;3.72;;;-0.70;99.90;;;;;;5032617;28;20045;-79
2021/12/21 05:34:16;;;;;;;8.38;3.47;;;-0.70;99.90;;;;;;5015334;28;20219;-79
2021/12/21 05:36:42;;;;;;;8.60;3.23;;;-0.70;99.90;;;;;;5032391;28;20042;-79
2021/12/21 05:39:16;;;;;;;8.83;3.73;;;-0.70;99.90;;;;;;5032507;28;20046;-79
2021/12/21 05:41:54;;;;;;;7.30;3.15;;;-0.70;99.90;;;;;;5016145;28;20045;-79
2021/12/21 05:44:25;;;;;;;9.75;3.72;;;-0.60;99.90;;;;;;5014969;28;20045;-78
2021/12/21 05:46:53;;;;;;;9.32;3.78;;;-0.70;99.90;;;;;;5032305;28;20099;-78
2021/12/21 05:49:19;;;;;;;6.95;3.38;;;-0.70;99.90;;;;;;5014899;28;20389;-78
2021/12/21 05:51:46;;;;;;;12.80;4.20;;;-0.80;99.90;;;;;;5032245;28;20441;-78
2021/12/21 05:54:18;;;;;;;11.00;4.00;;;-0.70;99.90;;;;;;5032553;28;20049;-78
2021/12/21 05:56:44;;;;;;;10.45;3.60;;;-0.70;99.90;;;;;;5014541;28;20129;-78
2021/12/21 05:59:11;;;;;;;7.70;3.65;;;-0.80;99.90;;;;;;5032387;28;20088;-79
2021/12/21 06:01:36;;;;;;;8.13;3.70;;;-0.70;99.90;;;;;;5032133;28;20089;-78
2021/12/21 06:04:03;;;;;;;8.87;3.87;;;-0.80;99.90;;;;;;5033791;28;20081;-78
2021/12/21 06:06:31;;;;;;;10.95;4.43;;;-0.70;99.90;;;;;;5035917;28;20379;-78
2021/12/21 06:09:00;;;;;;;13.52;3.58;;;-0.70;99.90;;;;;;5018515;28;20048;-78
2021/12/21 06:11:25;;;;;;;7.85;3.42;;;-0.80;99.90;;;;;;5036101;28;20045;-79
2021/12/21 06:26:49;;;;;;;7.90;3.63;;;-0.80;99.90;;;;;;5035392;28;20112;-78
2021/12/21 06:29:15;;;;;;;11.30;3.93;;;-0.80;99.90;;;;;;5018043;28;20049;-79
2021/12/21 06:31:41;;;;;;;10.15;3.97;;;-0.70;99.90;;;;;;5035541;28;20272;-79
2021/12/21 06:34:07;;;;;;;7.90;4.00;;;-0.70;99.90;;;;;;5035364;28;20547;-78
2021/12/21 06:36:33;;;;;;;9.60;3.90;;;-0.80;99.90;;;;;;5018013;28;20041;-76
2021/12/21 06:38:59;;;;;;;11.15;4.20;;;-0.70;99.90;;;;;;5035566;28;20041;-79
2021/12/21 06:41:25;;;;;;;10.13;4.30;;;-0.80;99.90;;;;;;5035668;28;20115;-79
2021/12/21 06:43:51;;;;;;;9.40;3.95;;;-0.80;99.90;;;;;;5035375;28;20056;-78
2021/12/21 06:51:52;;;;;;;7.20;3.95;;;-0.80;99.90;;;;;;5035294;28;20119;-78
2021/12/21 06:54:18;;;;;;;7.43;3.58;;;-0.80;99.90;;;;;;5035392;28;20151;-78
2021/12/21 06:56:45;;;;;;;11.25;3.95;;;;;;;;;;5035005;28;20045;-78
2021/12/21 06:59:11;;;;;;;11.32;3.92;;;;;;;;;;5035096;28;20081;-79
2021/12/21 07:01:38;;;;;;;10.00;4.07;;;;;;;;;;5017069;28;20053;-78
2021/12/21 07:04:06;;;;;;;11.50;4.63;;;;;;;;;;5035236;28;20096;-79
2021/12/21 07:06:34;;;;;;;9.32;4.47;;;;;;;;;;5035140;28;20049;-80
2021/12/21 07:09:06;;;;;;;9.32;4.40;;;-0.80;99.90;;;;;;5017164;28;20041;-79
2021/12/21 07:19:31;;;;;;;10.68;4.57;;;-0.90;99.90;;;;;;5034916;28;20046;-79
2021/12/21 07:21:57;;;;;;;12.77;4.97;;;-0.80;99.90;;;;;;5034633;28;20045;-77
2021/12/21 07:24:24;;;;;;;10.80;5.50;;;-0.70;99.90;;;;;;5034903;28;20045;-78
2021/12/21 07:26:50;;;;;;;13.48;5.65;;;-0.50;99.90;;;;;;5034483;28;20195;-78
2021/12/21 07:29:16;;;;;;;14.50;5.83;;;;;;;;;;5034514;28;20073;-85
2021/12/21 07:31:43;;;;;;;11.98;5.47;;;;;;;;;;5034464;28;20053;-81
2021/12/21 07:34:09;;;;;;;13.80;6.18;;;;;;;;;;5034646;28;20111;-83
2021/12/21 07:36:35;;;;;;;10.35;5.35;;;;;;;;;;5017103;28;20049;-81
2021/12/21 07:39:07;;;;;;;15.35;5.75;;;;;;;;;;5034076;28;20045;-81
2021/12/21 07:41:34;;;;;;;14.15;6.13;;;;;;;;;;5034497;28;20139;-81
2021/12/21 07:44:00;;;;;;;14.07;5.63;;;;;;;;;;5033995;28;20496;-79
2021/12/21 07:46:26;;;;;;;12.38;5.65;;;;;;;;;;5034103;28;20521;-79
2021/12/21 07:48:52;;;;;;;17.08;6.72;;;;;;;;;;5034020;28;20498;-79
2021/12/21 07:51:19;;;;;;;16.17;5.70;;;;;;;;;;5034309;28;20049;-79
2021/12/21 07:53:45;;;;;;;13.77;6.85;;;;;;;;;;5034234;28;20049;-79
2021/12/21 07:56:11;;;;;;;12.43;6.10;;;;;;;;;;5034297;28;20045;-79
2021/12/21 07:58:37;;;;;;;12.15;6.28;;;;;;;;;;5034371;28;20136;-79
2021/12/21 08:01:04;;;;;;;15.85;6.57;;;;;;;;;;5034089;28;20049;-79
2021/12/21 08:03:33;;;;;;;14.10;6.97;;;;;;;;;;5033795;28;20482;-79
2021/12/21 08:06:00;;;;;;;14.15;5.95;;;;;;;;;;5033943;28;20401;-79
2021/12/21 08:08:28;;;;;;;15.05;6.40;;;;;;;;;;5034037;28;20532;-79
2021/12/21 08:11:09;;;;;;;13.88;6.57;;;;;;;;;;5033847;28;20141;-79
2021/12/21 08:13:36;;;;;;;14.63;6.88;;;;;;;;;;5034314;28;20111;-79
2021/12/21 08:16:02;;;;;;;17.83;8.07;;;;;;;;;;5016132;28;20046;-79
2021/12/21 08:18:28;;;;;;;17.48;9.02;;;;;;;;;;5033833;28;20037;-79
2021/12/21 08:20:54;;;;;;;14.48;7.70;;;;;;;;;;5033718;28;20053;-80
2021/12/21 08:23:20;;;;;;;16.35;7.68;;;;;;;;;;5033945;28;20045;-80
2021/12/21 08:25:46;;;;;;;15.50;7.43;;;;;;;;;;5033206;28;20115;-78
2021/12/21 08:28:12;;;;;;;15.82;7.63;;;;;;;;;;5033514;28;20045;-79
2021/12/21 08:30:39;;;;;;;12.73;6.82;;;;;;;;;;5033861;28;20057;-79
2021/12/21 08:33:05;;;;;;;15.02;6.88;;;;;;;;;;5033450;28;20053;-79
2021/12/21 08:35:32;;;;;;;13.15;7.30;;;;;;;;;;5033635;28;20050;-79
2021/12/21 08:38:05;;;;;;;16.13;6.93;;;;;;;;;;5033299;28;20049;-79
2021/12/21 08:40:38;;;;;;;14.48;7.53;;;;;;;;;;5033857;28;20049;-79
2021/12/21 08:43:08;;;;;;;15.43;8.35;;;;;;;;;;5033422;28;20045;-79
2021/12/21 08:45:35;;;;;;;14.93;9.63;;;;;;;;;;5033513;28;20464;-79
2021/12/21 08:48:02;;;;;;;16.85;9.82;;;;;;;;;;5033179;28;20041;-79
2021/12/21 08:50:29;;;;;;;16.42;8.98;;;;;;;;;;5033396;28;20053;-79
2021/12/21 08:52:55;;;;;;;19.38;8.52;;;;;;;;;;5033172;28;20456;-79
2021/12/21 08:55:21;;;;;;;17.20;8.75;;;;;;;;;;5033543;28;20049;-79
2021/12/21 08:57:47;;;;;;;13.13;7.95;;;;;;;;;;5015521;28;20056;-79
2021/12/21 09:00:13;;;;;;;14.48;7.63;;;;;;;;;;5032984;28;20045;-79
2021/12/21 09:02:39;;;;;;;16.48;7.47;;;;;;;;;;5033277;28;20046;-79
2021/12/21 09:05:10;;;;;;;13.07;8.25;;;;;;;;;;5032990;28;20049;-79
2021/12/21 09:07:37;;;;;;;16.67;9.05;;;;;;;;;;5033446;28;20089;-79
2021/12/21 09:10:03;;;;;;;16.98;8.77;;;;;;;;;;5015494;28;20049;-79
2021/12/21 09:12:29;;;;;;;15.30;9.68;;;;;;;;;;5033123;28;20088;-79
2021/12/21 09:14:55;;;;;;;19.30;9.52;;;;;;;;;;5032874;28;20041;-79
2021/12/21 09:17:21;;;;;;;14.10;9.23;;;;;;;;;;5032906;28;20045;-79
2021/12/21 09:19:48;;;;;;;18.95;9.25;;;;;;;;;;5033230;28;20049;-79
2021/12/21 09:22:14;;;;;;;16.55;9.32;;;;;;;;;;5032763;28;20068;-79
2021/12/21 09:24:40;;;;;;;19.15;9.50;;;;;;;;;;5033050;28;20056;-79
2021/12/21 09:27:06;;;;;;;17.90;9.13;;;;;;;;;;5032800;28;20057;-79
2021/12/21 09:29:32;;;;;;;17.83;10.70;;;;;;;;;;5015222;28;20061;-79
2021/12/21 09:31:59;;;;;;;18.90;11.95;;;;;;;;;;5015327;28;20103;-79
2021/12/21 09:34:25;;;;;;;17.75;11.05;;;;;;;;;;5032923;28;20047;-79
2021/12/21 09:36:52;;;;;;;19.35;10.57;;;;;;;;;;5032997;28;20049;-79
2021/12/21 09:39:18;;;;;;;21.67;11.45;;;;;;;;;;5036320;28;20084;-79
2021/12/21 09:41:45;;;;;;;21.25;11.82;;;;;;;;;;5036628;28;20409;-79
2021/12/21 09:44:11;;;;;;;21.88;13.02;;;;;;;;;;5036726;28;20044;-79
2021/12/21 09:46:37;;;;;;;21.58;12.52;;;-0.30;99.90;;;;;;5019474;28;20096;-79
2021/12/21 09:49:03;;;;;;;21.63;13.70;;;-0.10;99.90;;;;;;5018885;28;20076;-78
2021/12/21 09:51:29;;;;;;;21.10;12.40;;;;;;;;;;5036736;28;20104;-80
2021/12/21 09:53:59;;;;;;;23.33;13.00;;;;;;;;;;5036638;28;20128;-79
2021/12/21 09:56:25;;;;;;;24.73;13.82;;;;;;;;;;5036877;28;20045;-79
2021/12/21 09:58:51;;;;;;;20.63;12.32;;;;;;;;;;5036669;28;20045;-79
2021/12/21 10:01:20;;;;;;;22.60;12.25;;;;;;;;;;5036358;28;20064;-79
2021/12/21 10:03:47;;;;;;;23.55;12.73;;;;;;;;;;5036564;28;20076;-79
2021/12/21 10:06:13;;;;;;;21.05;12.10;;;;;;;;;;5036254;28;20061;-79
2021/12/21 10:08:39;;;;;;;21.60;13.18;;;0.00;99.90;;;;;;5036422;28;20084;-79
2021/12/21 10:11:16;;;;;;;25.48;13.20;;;0.00;99.90;;;;;;5018825;28;20054;-79
2021/12/21 10:13:41;;;;;;;22.00;11.98;;;0.00;99.90;;;;;;5036356;28;20041;-80
2021/12/21 10:16:07;;;;;;;20.97;11.80;;;0.00;99.90;;;;;;5036097;28;20052;-79
2021/12/21 10:18:38;;;;;;;20.83;12.93;;;0.00;99.90;;;;;;5036359;28;20457;-80
2021/12/21 10:21:06;;;;;;;25.45;12.98;;;0.10;99.90;;;;;;5036082;28;20048;-79
2021/12/21 10:23:38;;;;;;;19.70;11.75;;;0.10;99.90;;;;;;5036418;28;20108;-80
2021/12/21 10:26:12;;;;;;;19.38;10.85;;;0.10;99.90;;;;;;5035958;28;20057;-79
2021/12/21 10:28:51;;;;;;;22.77;11.13;;;0.20;99.90;;;;;;5036321;28;20044;-80
2021/12/21 10:31:39;;;;;;;20.85;11.98;;;0.20;99.90;;;;;;5035781;28;20053;-80
2021/12/21 10:34:06;;;;;;;19.38;11.85;;;;;;;;;;5035798;28;20053;-79
2021/12/21 10:36:43;;;;;;;23.45;11.80;;;0.30;99.90;;;;;;5035937;28;20146;-80
2021/12/21 10:39:09;;;;;;;23.90;11.27;;;0.40;99.90;;;;;;5035728;28;20053;-80
2021/12/21 10:41:42;;;;;;;19.60;12.13;;;0.40;99.90;;;;;;5018359;28;20061;-80
2021/12/21 10:44:14;;;;;;;19.58;11.05;;;0.40;99.90;;;;;;5035585;28;20072;-80
2021/12/21 10:46:41;;;;;;;24.88;11.40;;;;;;;;;;5035901;28;20045;-80
2021/12/21 10:49:15;;;;;;;22.20;12.05;;;;;;;;;;5034672;28;20052;-80
2021/12/21 10:51:55;;;;;;;24.15;11.82;;;;;;;;;;5035955;28;20080;-80
2021/12/21 10:54:41;;;;;;;20.23;10.75;;;;;;;;;;5035442;28;20045;-79
2021/12/21 10:57:10;;;;;;;20.77;10.82;;;0.60;99.90;;;;;;5035360;28;20049;-79
2021/12/21 10:59:37;;;;;;;21.42;11.35;;;0.60;99.90;;;;;;5035463;28;20052;-80
2021/12/21 11:02:11;;;;;;;17.20;11.32;;;0.70;99.90;;;;;;5001780;28;20046;-76
2021/12/21 11:04:39;;;;;;;21.23;11.52;;;0.70;99.90;;;;;;5035382;28;20049;-80
2021/12/21 11:10:10;;;;;;;22.45;11.68;;;0.70;99.90;;;;;;5035516;28;20512;-80
2021/12/21 11:12:51;;;;;;;18.67;10.43;;;0.80;99.90;;;;;;5035389;28;20049;-80
2021/12/21 11:15:20;;;;;;;19.13;10.85;;;0.80;99.90;;;;;;5034961;28;20124;-80
2021/12/21 11:17:47;;;;;;;21.35;11.30;;;0.80;99.90;;;;;;5035241;28;20050;-80
2021/12/21 11:20:14;;;;;;;21.55;10.85;;;0.90;99.90;;;;;;5034931;28;20056;-80
2021/12/21 11:22:43;;;;;;;21.23;10.93;;;0.90;99.90;;;;;;5035076;28;20129;-80
2021/12/21 11:25:10;;;;;;;16.20;10.93;;;;;;;;;;5034806;28;20042;-79
2021/12/21 11:27:38;;;;;;;23.13;11.52;;;1.00;99.90;;;;;;5017631;28;20484;-80
2021/12/21 11:30:15;;;;;;;17.95;11.27;;;;;;;;;;5034794;28;20107;-80
2021/12/21 11:32:44;;;;;;;18.90;10.13;;;;;;;;;;5017235;28;20088;-80
2021/12/21 11:37:37;;;;;;;20.17;10.48;;;;;;;;;;5034649;28;20095;-80
2021/12/21 11:40:05;;;;;;;19.55;10.57;;;;;;;;;;5034921;28;20049;-80
2021/12/21 11:42:34;;;;;;;16.40;9.60;;;;;;;;;;5034511;28;20444;-80
2021/12/21 11:45:03;;;;;;;19.65;10.80;;;;;;;;;;5034617;28;20046;-80
2021/12/21 11:47:36;;;;;;;17.67;9.50;;;;;;;;;;5034379;28;20119;-80
2021/12/21 11:50:06;;;;;;;16.92;9.65;;;;;;;;;;5034624;28;20049;-80
2021/12/21 11:52:43;;;;;;;16.50;9.68;;;;;;;;;;5034272;28;20470;-81
2021/12/21 11:55:09;;;;;;;18.05;10.35;;;;;;;;;;5034562;28;20045;-80
2021/12/21 11:57:45;;;;;;;19.63;10.50;;;1.50;99.90;;;;;;5034335;28;20084;-80
2021/12/21 12:00:26;;;;;;;21.90;10.38;;;1.40;99.90;;;;;;5034124;28;20049;-78
2021/12/21 12:02:53;;;;;;;17.52;10.00;;;1.40;99.90;;;;;;5034402;28;20096;-80
2021/12/21 12:05:31;;;;;;;17.67;10.60;;;1.50;99.90;;;;;;5034059;28;20049;-80
2021/12/21 12:08:04;;;;;;;20.15;10.30;;;1.50;99.90;;;;;;5034261;28;20521;-80
2021/12/21 12:10:32;;;;;;;18.42;9.38;;;1.50;99.90;;;;;;5034025;28;20037;-80
2021/12/21 12:13:33;;;;;;;20.58;9.65;;;1.50;99.90;;;;;;5034122;28;20049;-80
2021/12/21 12:16:10;;;;;;;20.20;9.23;;;1.60;99.90;;;;;;5034601;28;20052;-80
2021/12/21 12:18:48;;;;;;;18.92;9.57;;;1.60;99.90;;;;;;5034149;28;20046;-79
2021/12/21 12:21:22;;;;;;;16.75;9.13;;;1.60;99.90;;;;;;5033787;28;20053;-80
2021/12/21 12:23:54;;;;;;;18.30;9.18;;;1.60;99.90;;;;;;5034005;28;20117;-79
2021/12/21 12:26:30;;;;;;;16.75;8.98;;;1.70;99.90;;;;;;5016444;28;20052;-79
2021/12/21 12:29:09;;;;;;;19.35;9.32;;;1.70;99.90;;;;;;5034120;28;20046;-80
2021/12/21 12:31:38;;;;;;;25.38;9.60;;;1.70;99.90;;;;;;5033770;28;20385;-80
2021/12/21 12:34:04;;;;;;;18.83;8.88;;;1.70;99.90;;;;;;5033753;28;20050;-80
2021/12/21 12:36:47;;;;;;;18.98;9.30;;;1.70;99.90;;;;;;4999759;28;20057;-79
2021/12/21 12:39:26;;;;;;;17.48;8.75;;;1.80;99.90;;;;;;5033737;28;20042;-80
2021/12/21 12:41:52;;;;;;;17.10;8.25;;;1.70;99.90;;;;;;5033656;28;20045;-80
2021/12/21 12:44:23;;;;;;;14.50;7.23;;;1.70;99.90;;;;;;5033356;28;20103;-79
2021/12/21 12:46:58;;;;;;;15.13;6.93;;;1.80;99.90;;;;;;5033542;28;20052;-80
2021/12/21 12:49:28;;;;;;;16.70;7.40;;;1.80;99.90;;;;;;5033315;28;20043;-80
2021/12/21 12:52:31;;;;;;;13.70;7.95;;;1.90;99.90;;;;;;5033538;28;20054;-80
2021/12/21 12:55:00;;;;;;;18.00;8.50;;;1.90;99.90;;;;;;5033831;28;20092;-80
2021/12/21 12:57:29;;;;;;;14.73;7.95;;;1.90;99.90;;;;;;5033063;28;20041;-79
2021/12/21 13:00:08;;;;;;;18.10;8.63;;;1.90;99.90;;;;;;5033533;28;20437;-80
2021/12/21 13:02:34;;;;;;;17.73;7.78;;;;;;;;;;5033114;28;20111;-80
2021/12/21 13:05:08;;;;;;;15.13;7.93;;;1.90;99.90;;;;;;5015847;28;20041;-80
2021/12/21 13:07:34;;;;;;;17.52;7.38;;;1.90;99.90;;;;;;5033046;28;20052;-80
2021/12/21 13:10:06;;;;;;;21.33;8.27;;;1.90;99.90;;;;;;5033170;28;20041;-80
2021/12/21 13:12:32;;;;;;;15.90;8.02;;;1.90;99.90;;;;;;5032543;28;20052;-79
2021/12/21 13:14:57;;;;;;;18.57;8.37;;;1.90;99.90;;;;;;5033134;28;20042;-80
2021/12/21 13:17:23;;;;;;;19.30;8.60;;;1.90;99.90;;;;;;5015480;28;20363;-79
2021/12/21 13:19:49;;;;;;;13.90;7.77;;;1.90;99.90;;;;;;5033123;28;20076;-80
2021/12/21 13:22:21;;;;;;;14.83;7.37;;;2.00;99.90;;;;;;5033006;28;20049;-79
2021/12/21 13:24:48;;;;;;;16.58;7.68;;;2.00;99.90;;;;;;5032855;28;20106;-80
2021/12/21 13:27:15;;;;;;;19.05;8.70;;;2.00;99.90;;;;;;5032403;28;20164;-80
2021/12/21 13:29:44;;;;;;;17.63;8.38;;;2.00;99.90;;;;;;5032512;28;20060;-80
2021/12/21 13:32:14;;;;;;;17.40;8.20;;;2.00;99.90;;;;;;5033088;28;20053;-80
2021/12/21 13:34:42;;;;;;;14.35;7.60;;;2.00;99.90;;;;;;5015467;28;20053;-80
2021/12/21 13:37:18;;;;;;;16.02;7.78;;;2.00;99.90;;;;;;5032829;28;20053;-80
2021/12/21 13:39:57;;;;;;;17.60;8.00;;;2.00;99.90;;;;;;5032701;28;20102;-80
2021/12/21 13:42:27;;;;;;;19.05;7.68;;;2.00;99.90;;;;;;5032699;28;20401;-79
2021/12/21 13:44:59;;;;;;;19.73;8.13;;;2.00;99.90;;;;;;4999372;28;20128;-80
2021/12/21 13:47:34;;;;;;;17.33;7.00;;;2.00;99.90;;;;;;5032582;28;20478;-79
2021/12/21 13:50:04;;;;;;;16.42;6.88;;;2.00;99.90;;;;;;5032599;28;20494;-80
2021/12/21 13:52:36;;;;;;;15.07;6.38;;;2.00;99.90;;;;;;5032457;28;20493;-79
2021/12/21 13:55:05;;;;;;;13.25;6.78;;;2.10;99.90;;;;;;5032925;28;20089;-79
2021/12/21 13:57:32;;;;;;;18.10;6.40;;;2.10;99.90;;;;;;5032440;28;20048;-79
2021/12/21 13:59:59;;;;;;;17.40;8.57;;;2.10;99.90;;;;;;5032675;28;20119;-79
2021/12/21 14:02:35;;;;;;;16.35;6.53;;;2.20;99.90;;;;;;5015147;28;20049;-79
2021/12/21 14:05:06;;;;;;;11.88;6.60;;;2.00;99.90;;;;;;5032865;28;20057;-80
2021/12/21 14:07:40;;;;;;;12.38;6.35;;;2.10;99.90;;;;;;5014825;28;20049;-79
2021/12/21 14:10:12;;;;;;;11.18;5.55;;;2.00;99.90;;;;;;5032295;28;20510;-79
2021/12/21 14:12:39;;;;;;;13.88;5.65;;;2.00;99.90;;;;;;5032445;28;20052;-79
2021/12/21 14:15:05;;;;;;;14.75;6.10;;;2.00;99.90;;;;;;5032537;28;20041;-79
2021/12/21 14:17:31;;;;;;;14.80;5.50;;;2.00;99.90;;;;;;5032143;28;20050;-79